createdAt,value
2018-07-06T00:00:52.160Z,21.90
2018-07-06T00:03:25.376Z,22.00
2018-07-06T00:05:58.542Z,22.00
2018-07-06T00:08:31.748Z,22.00
2018-07-06T00:11:09.679Z,22.10
2018-07-06T00:13:42.813Z,22.10
2018-07-06T00:16:16.037Z,22.10
2018-07-06T00:18:49.147Z,22.00
2018-07-06T00:21:22.292Z,22.00
2018-07-06T00:23:55.519Z,22.00
2018-07-06T00:26:28.687Z,22.00
2018-07-06T00:29:01.989Z,22.00
2018-07-06T00:31:35.069Z,21.90
2018-07-06T00:34:08.180Z,22.00
2018-07-06T00:36:41.404Z,21.90
2018-07-06T00:42:05.506Z,21.90
2018-07-06T00:44:38.626Z,21.80
2018-07-06T00:47:11.824Z,21.80
2018-07-06T00:49:47.304Z,21.80
2018-07-06T00:52:20.557Z,21.80
2018-07-06T00:54:53.779Z,21.80
2018-07-06T00:57:26.896Z,21.80
2018-07-06T01:00:00.091Z,21.70
2018-07-06T01:02:33.353Z,21.80
2018-07-06T01:05:06.549Z,21.80
2018-07-06T01:07:39.685Z,21.70
2018-07-06T01:12:45.690Z,21.70
2018-07-06T01:15:24.410Z,21.70
2018-07-06T01:17:57.599Z,21.80
2018-07-06T01:20:30.683Z,21.70
2018-07-06T01:23:03.814Z,21.80
2018-07-06T01:25:37.015Z,21.80
2018-07-06T01:28:10.145Z,21.80
2018-07-06T01:30:43.419Z,21.80
2018-07-06T01:33:16.780Z,21.80
2018-07-06T01:35:50.128Z,21.80
2018-07-06T01:38:23.385Z,21.80
2018-07-06T01:40:56.674Z,21.80
2018-07-06T01:43:29.944Z,21.70
2018-07-06T01:46:03.276Z,21.60
2018-07-06T01:48:36.497Z,21.70
2018-07-06T01:51:09.685Z,21.70
2018-07-06T01:53:42.905Z,21.60
2018-07-06T01:56:16.018Z,21.60
2018-07-06T01:58:49.140Z,21.60
2018-07-06T02:01:30.966Z,21.50
2018-07-06T02:04:04.161Z,21.50
2018-07-06T02:06:37.337Z,21.40
2018-07-06T02:09:10.548Z,21.30
2018-07-06T02:14:37.816Z,21.40
2018-07-06T02:17:10.977Z,21.30
2018-07-06T02:19:44.280Z,21.30
2018-07-06T02:22:17.609Z,21.40
2018-07-06T02:24:50.764Z,21.40
2018-07-06T02:27:23.916Z,21.40
2018-07-06T02:29:57.150Z,21.30
2018-07-06T02:32:30.313Z,21.30
2018-07-06T02:35:03.405Z,21.20
2018-07-06T02:40:04.000Z,21.10
2018-07-06T02:42:37.242Z,21.00
2018-07-06T02:45:10.462Z,21.10
2018-07-06T02:47:43.577Z,21.10
2018-07-06T02:50:16.844Z,21.00
2018-07-06T02:52:50.031Z,21.00
2018-07-06T02:55:23.205Z,21.00
2018-07-06T02:57:56.401Z,21.00
2018-07-06T03:00:29.593Z,20.90
2018-07-06T03:03:02.758Z,20.90
2018-07-06T03:05:35.874Z,20.80
2018-07-06T03:08:08.975Z,20.80
2018-07-06T03:10:42.113Z,20.70
2018-07-06T03:13:15.237Z,20.80
2018-07-06T03:15:48.438Z,20.70
2018-07-06T03:18:21.573Z,20.70
2018-07-06T03:20:54.986Z,20.60
2018-07-06T03:23:28.103Z,20.50
2018-07-06T03:26:01.299Z,20.50
2018-07-06T03:28:34.544Z,20.60
2018-07-06T03:31:07.660Z,20.50
2018-07-06T03:33:40.797Z,20.40
2018-07-06T03:36:14.009Z,20.40
2018-07-06T03:38:47.531Z,20.30
2018-07-06T03:41:20.766Z,20.30
2018-07-06T03:43:53.845Z,20.30
2018-07-06T03:46:27.041Z,20.30
2018-07-06T03:49:00.325Z,20.20
2018-07-06T03:51:33.556Z,20.30
2018-07-06T03:54:06.845Z,20.40
2018-07-06T03:56:40.039Z,20.30
2018-07-06T03:59:13.181Z,20.40
2018-07-06T04:01:46.536Z,20.40
2018-07-06T04:04:19.652Z,20.40
2018-07-06T04:06:52.924Z,20.40
2018-07-06T04:09:26.249Z,20.30
2018-07-06T04:14:27.251Z,20.30
2018-07-06T04:17:00.565Z,20.40
2018-07-06T04:19:33.679Z,20.30
2018-07-06T04:22:06.749Z,20.30
2018-07-06T04:24:39.873Z,20.30
2018-07-06T04:27:14.038Z,20.10
2018-07-06T04:29:49.229Z,20.20
2018-07-06T04:32:22.321Z,20.20
2018-07-06T04:34:55.418Z,20.30
2018-07-06T04:37:28.633Z,20.30
2018-07-06T04:40:02.072Z,20.30
2018-07-06T04:42:35.336Z,20.30
2018-07-06T04:45:08.672Z,20.30
2018-07-06T04:47:41.922Z,20.20
2018-07-06T04:50:15.066Z,20.10
2018-07-06T04:52:48.184Z,20.00
2018-07-06T04:55:21.580Z,20.00
2018-07-06T04:57:54.789Z,20.00
2018-07-06T05:00:27.931Z,19.90
2018-07-06T05:03:01.069Z,19.80
2018-07-06T05:05:34.239Z,19.70
2018-07-06T05:08:07.373Z,19.80
2018-07-06T05:10:40.511Z,19.80
2018-07-06T05:13:13.836Z,19.90
2018-07-06T05:15:47.062Z,19.80
2018-07-06T05:18:26.007Z,19.80
2018-07-06T05:20:59.247Z,19.80
2018-07-06T05:23:32.413Z,20.00
2018-07-06T05:26:05.595Z,20.00
2018-07-06T05:28:38.729Z,20.10
2018-07-06T05:31:11.857Z,20.20
2018-07-06T05:33:45.000Z,20.30
2018-07-06T05:36:18.439Z,20.30
2018-07-06T05:38:51.798Z,20.40
2018-07-06T05:41:25.170Z,20.30
2018-07-06T05:43:58.326Z,20.50
2018-07-06T05:46:31.479Z,20.60
2018-07-06T05:49:04.690Z,20.70
2018-07-06T05:51:37.873Z,20.70
2018-07-06T05:54:11.291Z,20.80
2018-07-06T05:56:44.600Z,20.90
2018-07-06T05:59:17.999Z,20.80
2018-07-06T06:01:51.389Z,20.60
2018-07-06T06:04:24.707Z,20.50
2018-07-06T06:06:57.894Z,20.40
2018-07-06T06:15:17.893Z,20.40
2018-07-06T06:17:45.690Z,20.50
2018-07-06T06:20:15.279Z,20.50
2018-07-06T06:22:43.104Z,20.60
2018-07-06T06:25:10.810Z,20.70
2018-07-06T06:27:38.426Z,20.50
2018-07-06T06:30:06.159Z,20.60
2018-07-06T06:32:33.952Z,20.70
2018-07-06T06:37:29.066Z,20.80
2018-07-06T06:39:56.693Z,20.90
2018-07-06T06:42:24.297Z,20.80
2018-07-06T06:44:51.955Z,20.90
2018-07-06T06:47:19.594Z,21.00
2018-07-06T06:52:14.525Z,21.00
2018-07-06T06:54:42.101Z,20.90
2018-07-06T06:57:11.632Z,20.80
2018-07-06T06:59:39.479Z,21.10
2018-07-06T07:02:07.162Z,21.10
2018-07-06T07:04:34.915Z,21.20
2018-07-06T07:07:02.513Z,21.30
2018-07-06T07:09:30.462Z,21.30
2018-07-06T07:11:58.116Z,21.60
2018-07-06T07:14:30.118Z,21.60
2018-07-06T07:16:57.956Z,21.90
2018-07-06T07:19:25.629Z,22.40
2018-07-06T07:21:53.319Z,22.40
2018-07-06T07:24:21.159Z,22.50
2018-07-06T07:26:49.002Z,22.50
2018-07-06T07:29:16.670Z,22.60
2018-07-06T07:31:44.321Z,22.80
2018-07-06T07:34:11.975Z,23.10
2018-07-06T07:36:39.739Z,23.50
2018-07-06T07:39:07.492Z,23.70
2018-07-06T07:41:37.359Z,23.30
2018-07-06T07:44:06.058Z,23.70
2018-07-06T07:46:33.781Z,23.80
2018-07-06T07:49:01.492Z,23.90
2018-07-06T07:52:01.908Z,24.10
2018-07-06T07:57:02.038Z,24.10
2018-07-06T07:59:30.834Z,24.10
2018-07-06T08:01:59.562Z,24.50
2018-07-06T08:04:27.678Z,24.80
2018-07-06T08:06:55.331Z,25.00
2018-07-06T08:09:23.655Z,24.40
2018-07-06T08:12:00.930Z,24.20
2018-07-06T08:14:28.605Z,24.20
2018-07-06T08:16:56.163Z,24.00
2018-07-06T08:19:23.791Z,24.30
2018-07-06T08:21:51.475Z,24.40
2018-07-06T08:24:19.724Z,24.70
2018-07-06T08:29:14.889Z,24.90
2018-07-06T08:31:43.045Z,24.70
2018-07-06T08:34:16.812Z,24.90
2018-07-06T08:37:49.561Z,25.40
2018-07-06T08:40:17.630Z,25.90
2018-07-06T08:42:46.544Z,25.80
2018-07-06T08:45:14.515Z,25.90
2018-07-06T08:47:42.616Z,25.30
2018-07-06T08:50:12.451Z,25.20
2018-07-06T08:52:41.062Z,25.30
2018-07-06T08:55:08.747Z,25.50
2018-07-06T08:57:37.073Z,25.40
2018-07-06T09:00:04.801Z,25.50
2018-07-06T09:02:32.387Z,25.80
2018-07-06T09:05:07.416Z,25.70
2018-07-06T09:07:35.113Z,25.80
2018-07-06T09:10:03.048Z,25.70
2018-07-06T09:12:30.666Z,26.40
2018-07-06T09:14:58.767Z,26.80
2018-07-06T09:19:54.614Z,26.90
2018-07-06T09:22:23.468Z,26.90
2018-07-06T09:24:52.047Z,27.00
2018-07-06T09:27:19.662Z,27.30
2018-07-06T09:29:47.274Z,27.50
2018-07-06T09:32:14.995Z,27.70
2018-07-06T09:34:55.349Z,27.90
2018-07-06T09:37:22.974Z,28.10
2018-07-06T09:39:51.138Z,28.20
2018-07-06T09:42:19.260Z,28.20
2018-07-06T09:44:47.013Z,28.30
2018-07-06T09:52:51.431Z,27.50
2018-07-06T09:55:19.077Z,28.00
2018-07-06T09:57:46.720Z,27.30
2018-07-06T10:00:18.694Z,27.70
2018-07-06T10:02:47.021Z,28.00
2018-07-06T10:05:14.725Z,28.00
2018-07-06T10:07:42.373Z,28.00
2018-07-06T10:10:10.069Z,28.10
2018-07-06T10:14:47.876Z,28.40
2018-07-06T10:42:41.293Z,28.20
2018-07-06T10:45:08.877Z,28.40
2018-07-06T10:47:37.298Z,28.50
2018-07-06T10:50:10.813Z,28.50
2018-07-06T10:52:38.634Z,28.40
2018-07-06T10:55:06.469Z,28.40
2018-07-06T11:01:48.343Z,28.40
2018-07-06T11:04:16.481Z,28.70
2018-07-06T11:06:45.918Z,29.00
2018-07-06T11:12:02.575Z,29.50
2018-07-06T11:14:32.392Z,29.70
2018-07-06T11:17:00.067Z,30.00
2018-07-06T11:19:27.960Z,30.00
2018-07-06T11:21:59.054Z,29.90
2018-07-06T11:26:54.853Z,29.00
2018-07-06T11:29:34.564Z,28.70
2018-07-06T11:32:02.271Z,28.50
2018-07-06T11:34:30.463Z,28.20
2018-07-06T11:37:01.198Z,28.00
2018-07-06T11:39:29.679Z,28.00
2018-07-06T11:42:01.806Z,28.40
2018-07-06T11:44:30.451Z,28.60
2018-07-06T11:46:58.174Z,28.70
2018-07-06T11:49:25.878Z,28.90
2018-07-06T11:52:01.200Z,29.00
2018-07-06T11:54:31.088Z,29.30
2018-07-06T11:57:02.393Z,29.70
2018-07-06T11:59:47.817Z,29.70
2018-07-06T12:02:15.709Z,29.80
2018-07-06T12:05:16.358Z,29.80
2018-07-06T12:07:54.836Z,29.80
2018-07-06T12:10:26.957Z,30.00
2018-07-06T12:13:10.974Z,30.00
2018-07-06T12:15:44.538Z,30.10
2018-07-06T12:18:12.360Z,29.90
2018-07-06T12:23:07.498Z,29.50
2018-07-06T12:25:38.134Z,29.20
2018-07-06T12:28:05.855Z,28.80
2018-07-06T12:30:34.575Z,28.90
2018-07-06T12:33:04.153Z,29.10
2018-07-06T12:46:43.406Z,29.70
2018-07-06T12:49:12.191Z,29.70
2018-07-06T12:51:39.778Z,29.70
2018-07-06T12:54:07.538Z,29.60
2018-07-06T12:56:35.209Z,29.50
2018-07-06T12:59:02.751Z,29.20
2018-07-06T13:01:30.377Z,29.40
2018-07-06T13:03:58.020Z,29.40
2018-07-06T13:06:25.580Z,29.20
2018-07-06T13:08:53.237Z,29.40
2018-07-06T13:11:20.782Z,29.60
2018-07-06T13:13:49.110Z,29.60
2018-07-06T13:16:17.430Z,29.70
2018-07-06T13:18:44.980Z,29.40
2018-07-06T13:21:13.943Z,29.50
2018-07-06T13:23:49.898Z,29.70
2018-07-06T13:26:17.433Z,29.90
2018-07-06T13:28:45.002Z,29.90
2018-07-06T13:31:12.609Z,29.60
2018-07-06T13:36:27.160Z,29.20
2018-07-06T13:39:01.291Z,29.00
2018-07-06T13:41:29.105Z,29.10
2018-07-06T13:43:56.646Z,29.00
2018-07-06T13:46:25.313Z,29.30
2018-07-06T13:48:52.957Z,29.70
2018-07-06T13:51:20.574Z,29.90
2018-07-06T13:53:48.105Z,29.90
2018-07-06T13:56:15.691Z,29.90
2018-07-06T13:58:43.287Z,29.70
2018-07-06T14:01:12.891Z,29.50
2018-07-06T14:03:41.521Z,29.60
2018-07-06T14:08:55.245Z,29.20
2018-07-06T14:11:30.484Z,28.90
2018-07-06T14:13:58.055Z,28.80
2018-07-06T14:16:25.635Z,28.80
2018-07-06T14:18:58.550Z,28.80
2018-07-06T14:21:30.717Z,28.70
2018-07-06T14:23:58.277Z,28.70
2018-07-06T14:26:25.868Z,28.80
2018-07-06T14:28:53.357Z,28.70
2018-07-06T14:34:25.255Z,28.40
2018-07-06T14:36:52.896Z,28.70
2018-07-06T14:39:20.451Z,28.60
2018-07-06T14:41:47.992Z,28.80
2018-07-06T14:44:15.552Z,28.80
2018-07-06T14:46:43.195Z,28.80
2018-07-06T14:49:10.790Z,28.90
2018-07-06T14:51:38.332Z,28.90
2018-07-06T14:54:05.922Z,28.80
2018-07-06T14:56:33.408Z,28.80
2018-07-06T14:59:00.904Z,28.70
2018-07-06T15:01:28.546Z,28.20
2018-07-06T15:03:56.149Z,28.10
2018-07-06T15:06:28.772Z,28.10
2018-07-06T15:08:56.390Z,28.10
2018-07-06T15:11:23.948Z,28.00
2018-07-06T15:13:59.895Z,27.80
2018-07-06T15:16:27.487Z,27.50
2018-07-06T15:19:02.351Z,27.40
2018-07-06T15:21:29.964Z,27.50
2018-07-06T15:23:57.508Z,27.30
2018-07-06T15:26:25.104Z,27.40
2018-07-06T15:28:52.677Z,27.40
2018-07-06T15:31:20.269Z,27.50
2018-07-06T15:36:15.104Z,27.20
2018-07-06T15:38:42.652Z,27.30
2018-07-06T15:41:10.207Z,27.20
2018-07-06T15:43:37.898Z,27.10
2018-07-06T15:46:16.785Z,27.10
2018-07-06T15:51:11.720Z,27.00
2018-07-06T15:53:39.275Z,27.10
2018-07-06T15:56:06.885Z,27.00
2018-07-06T15:58:34.480Z,26.90
2018-07-06T16:01:02.054Z,27.00
2018-07-06T16:03:29.605Z,26.80
2018-07-06T16:05:58.289Z,26.60
2018-07-06T16:08:25.868Z,26.80
2018-07-06T16:10:53.557Z,26.90
2018-07-06T16:13:24.944Z,26.60
2018-07-06T16:18:19.833Z,26.60
2018-07-06T16:20:47.437Z,26.60
2018-07-06T16:23:15.032Z,26.50
2018-07-06T16:25:42.602Z,26.50
2018-07-06T16:28:10.197Z,26.70
2018-07-06T16:33:08.305Z,26.40
2018-07-06T16:35:35.965Z,26.30
2018-07-06T16:38:03.571Z,26.30
2018-07-06T16:40:31.245Z,26.20
2018-07-06T16:42:58.857Z,26.20
2018-07-06T16:45:26.733Z,26.00
2018-07-06T16:47:54.413Z,26.00
2018-07-06T16:50:22.091Z,25.90
2018-07-06T16:52:49.797Z,25.90
2018-07-06T16:55:17.455Z,26.00
2018-07-06T16:57:45.205Z,26.10
2018-07-06T17:00:12.834Z,25.90
2018-07-06T17:02:40.688Z,25.80
2018-07-06T17:05:08.416Z,25.70
2018-07-06T17:07:36.102Z,25.70
2018-07-06T17:10:21.147Z,25.60
2018-07-06T17:12:48.894Z,25.50
2018-07-06T17:15:16.506Z,25.60
2018-07-06T17:17:44.069Z,25.50
2018-07-06T17:20:29.423Z,25.50
2018-07-06T17:22:56.964Z,25.50
2018-07-06T17:25:24.555Z,25.60
2018-07-06T17:27:52.195Z,25.60
2018-07-06T17:30:19.774Z,25.70
2018-07-06T17:32:58.527Z,25.80
2018-07-06T17:35:33.742Z,25.80
2018-07-06T17:38:14.349Z,25.90
2018-07-06T17:40:41.941Z,25.90
2018-07-06T17:43:09.520Z,25.80
2018-07-06T17:45:37.082Z,25.80
2018-07-06T17:48:15.332Z,25.70
2018-07-06T17:53:31.435Z,25.70
2018-07-06T17:56:04.362Z,25.60
2018-07-06T17:58:31.974Z,25.60
2018-07-06T18:01:01.666Z,25.60
2018-07-06T18:03:29.258Z,25.60
2018-07-06T18:11:32.817Z,25.30
2018-07-06T18:14:00.444Z,25.30
2018-07-06T18:16:29.120Z,25.30
2018-07-06T18:18:56.660Z,25.30
2018-07-06T18:26:57.173Z,25.20
2018-07-06T18:29:25.116Z,25.20
2018-07-06T18:34:21.444Z,25.10
2018-07-06T18:36:49.051Z,25.20
2018-07-06T18:39:16.773Z,25.10
2018-07-06T18:42:00.766Z,25.00
2018-07-06T18:44:32.199Z,24.90
2018-07-06T18:47:05.073Z,24.90
2018-07-06T18:49:32.672Z,24.70
2018-07-06T18:52:04.597Z,24.60
2018-07-06T18:54:38.079Z,24.60
2018-07-06T18:57:05.639Z,24.50
2018-07-06T18:59:33.241Z,24.60
2018-07-06T19:02:13.090Z,24.60
2018-07-06T19:04:40.701Z,24.60
2018-07-06T19:07:08.297Z,24.60
2018-07-06T19:09:35.872Z,24.40
2018-07-06T19:12:03.473Z,24.50
2018-07-06T19:14:31.089Z,24.40
2018-07-06T19:16:58.663Z,24.30
2018-07-06T19:19:31.690Z,24.30
2018-07-06T19:21:59.302Z,24.40
2018-07-06T19:24:26.963Z,24.30
2018-07-06T19:26:54.553Z,24.20
2018-07-06T19:29:30.307Z,24.20
2018-07-06T19:31:58.186Z,24.10
2018-07-06T19:34:33.059Z,24.00
2018-07-06T19:37:00.649Z,24.00
2018-07-06T19:42:14.585Z,24.00
2018-07-06T19:44:42.180Z,23.90
2018-07-06T19:47:09.760Z,23.80
2018-07-06T19:49:37.350Z,23.80
2018-07-06T19:52:04.960Z,23.80
2018-07-06T19:54:32.524Z,23.70
2018-07-06T19:57:00.213Z,23.60
2018-07-06T19:59:27.851Z,23.60
2018-07-06T20:01:55.541Z,23.60
2018-07-06T20:04:23.097Z,23.60
2018-07-06T20:06:50.663Z,23.60
2018-07-06T20:09:18.274Z,23.50
2018-07-06T20:11:45.881Z,23.50
2018-07-06T20:14:13.489Z,23.50
2018-07-06T20:16:41.392Z,23.50
2018-07-06T20:19:09.156Z,23.30
2018-07-06T20:21:36.657Z,23.30
2018-07-06T20:24:04.241Z,23.20
2018-07-06T20:26:31.853Z,23.10
2018-07-06T20:29:06.000Z,23.00
2018-07-06T20:31:33.509Z,23.00
2018-07-06T20:34:01.211Z,23.00
2018-07-06T20:36:28.818Z,22.90
2018-07-06T20:38:56.401Z,22.90
2018-07-06T20:41:26.002Z,22.80
2018-07-06T20:43:53.540Z,22.80
2018-07-06T20:46:21.309Z,22.80
2018-07-06T20:48:54.099Z,22.80
2018-07-06T20:51:26.857Z,22.90
2018-07-06T20:56:45.908Z,22.90
2018-07-06T20:59:13.493Z,22.80
2018-07-06T21:01:41.049Z,22.70
2018-07-06T21:04:08.650Z,22.70
2018-07-06T21:06:50.320Z,22.70
2018-07-06T21:09:25.549Z,22.70
2018-07-06T21:11:53.323Z,22.50
2018-07-06T21:14:22.967Z,22.60
2018-07-06T21:16:50.712Z,22.50
2018-07-06T21:19:18.520Z,22.30
2018-07-06T21:21:48.209Z,22.30
2018-07-06T21:24:15.854Z,22.40
2018-07-06T21:26:43.483Z,22.40
2018-07-06T21:29:11.061Z,22.40
2018-07-06T21:31:38.727Z,22.40
2018-07-06T21:34:06.300Z,22.40
2018-07-06T21:36:37.410Z,22.30
2018-07-06T21:41:38.121Z,22.30
2018-07-06T21:44:05.855Z,22.30
2018-07-06T21:46:33.402Z,22.30
2018-07-06T21:49:00.980Z,22.20
2018-07-06T21:51:28.738Z,22.20
2018-07-06T21:53:56.337Z,22.10
2018-07-06T21:56:23.957Z,22.00
2018-07-06T21:58:52.125Z,21.90
2018-07-06T22:01:19.745Z,21.90
2018-07-06T22:03:47.301Z,21.70
2018-07-06T22:06:14.888Z,21.60
2018-07-06T22:08:42.511Z,21.40
2018-07-06T22:11:10.174Z,21.40
2018-07-06T22:13:37.796Z,21.20
2018-07-06T22:16:05.369Z,21.10
2018-07-06T22:18:33.007Z,20.90
2018-07-06T22:21:00.608Z,20.80
2018-07-06T22:23:28.168Z,20.70
2018-07-06T22:25:55.913Z,20.60
2018-07-06T22:28:23.524Z,20.50
2018-07-06T22:30:51.076Z,20.40
2018-07-06T22:33:18.669Z,20.30
2018-07-06T22:35:46.215Z,20.30
2018-07-06T22:38:13.930Z,20.20
2018-07-06T22:40:41.483Z,20.10
2018-07-06T22:43:09.085Z,20.10
2018-07-06T22:45:36.677Z,19.90
2018-07-06T22:48:04.392Z,19.90
2018-07-06T22:50:31.985Z,19.70
2018-07-06T22:52:59.537Z,19.60
2018-07-06T22:55:27.174Z,19.50
2018-07-06T22:57:54.758Z,19.50
2018-07-06T23:00:22.289Z,19.40
2018-07-06T23:02:49.866Z,19.30
2018-07-06T23:05:18.735Z,19.30
2018-07-06T23:07:46.297Z,19.20
2018-07-06T23:10:13.874Z,19.10
2018-07-06T23:12:41.596Z,19.00
2018-07-06T23:15:09.128Z,18.90
2018-07-06T23:17:36.658Z,18.60
2018-07-06T23:20:04.398Z,18.50
2018-07-06T23:22:37.648Z,18.40
2018-07-06T23:25:05.294Z,18.30
2018-07-06T23:27:33.666Z,18.20
2018-07-06T23:30:01.246Z,18.10
2018-07-06T23:32:28.856Z,18.00
2018-07-06T23:37:23.768Z,18.00
2018-07-06T23:39:51.334Z,17.90
2018-07-06T23:42:19.068Z,17.90
2018-07-06T23:44:46.607Z,17.90
2018-07-06T23:47:14.250Z,17.90
2018-07-06T23:49:41.843Z,17.80
2018-07-06T23:52:09.494Z,17.80
2018-07-06T23:54:37.133Z,17.70
2018-07-06T23:57:04.723Z,17.60
2018-07-06T23:59:33.126Z,17.50
